createdAt,value
2022-11-20T00:01:15.694Z,9.65
2022-11-20T00:03:42.932Z,9.83
2022-11-20T00:06:12.813Z,9.53
2022-11-20T00:08:39.958Z,9.60
2022-11-20T00:11:33.409Z,9.52
2022-11-20T00:14:02.378Z,9.55
2022-11-20T00:16:32.116Z,9.47
2022-11-20T00:18:58.830Z,9.80
2022-11-20T00:21:27.878Z,9.56
2022-11-20T00:23:56.306Z,9.52
2022-11-20T00:26:24.611Z,9.58
2022-11-20T00:28:56.237Z,9.61
2022-11-20T00:31:23.259Z,9.47
2022-11-20T00:33:50.347Z,9.74
2022-11-20T00:36:19.656Z,9.64
2022-11-20T00:38:46.883Z,9.68
2022-11-20T00:41:15.809Z,9.50
2022-11-20T00:43:43.244Z,9.50
2022-11-20T00:46:15.996Z,9.59
2022-11-20T00:48:43.493Z,9.55
2022-11-20T00:51:12.205Z,9.59
2022-11-20T00:53:38.796Z,9.37
2022-11-20T00:56:08.008Z,9.48
2022-11-20T00:58:39.783Z,9.61
2022-11-20T01:01:16.248Z,9.59
2022-11-20T01:03:45.549Z,9.79
2022-11-20T01:06:15.119Z,9.68
2022-11-20T01:08:42.168Z,9.54
2022-11-20T01:11:12.031Z,9.77
2022-11-20T01:13:39.552Z,9.54
2022-11-20T01:16:09.631Z,9.32
2022-11-20T01:18:37.358Z,9.27
2022-11-20T01:21:14.065Z,9.16
2022-11-20T01:23:42.118Z,9.11
2022-11-20T01:26:12.004Z,9.36
2022-11-20T01:28:39.575Z,9.40
2022-11-20T01:31:33.947Z,9.22
2022-11-20T01:34:26.813Z,9.29
2022-11-20T01:36:54.485Z,9.45
2022-11-20T01:39:25.968Z,9.38
2022-11-20T01:42:15.387Z,9.33
2022-11-20T01:44:59.725Z,9.14
2022-11-20T01:47:29.233Z,9.21
2022-11-20T01:50:19.237Z,9.22
2022-11-20T01:53:06.284Z,9.20
2022-11-20T01:55:37.599Z,9.14
2022-11-20T01:58:05.653Z,9.06
2022-11-20T02:03:20.392Z,9.02
2022-11-20T02:06:02.997Z,8.98
2022-11-20T02:08:29.972Z,9.05
2022-11-20T02:10:56.571Z,9.10
2022-11-20T02:13:41.846Z,9.00
2022-11-20T02:16:17.698Z,8.87
2022-11-20T02:18:45.956Z,8.95
2022-11-20T02:21:28.179Z,8.88
2022-11-20T02:23:58.820Z,8.92
2022-11-20T02:26:28.533Z,9.02
2022-11-20T02:28:55.917Z,9.06
2022-11-20T02:31:22.596Z,8.77
2022-11-20T02:33:54.694Z,8.79
2022-11-20T02:36:21.262Z,9.00
2022-11-20T02:38:48.272Z,9.00
2022-11-20T02:41:14.920Z,8.94
2022-11-20T02:43:41.473Z,8.90
2022-11-20T02:46:09.403Z,9.03
2022-11-20T02:48:36.012Z,8.82
2022-11-20T02:51:02.556Z,9.04
2022-11-20T02:53:29.312Z,8.96
2022-11-20T02:55:56.448Z,8.74
2022-11-20T02:58:23.070Z,8.77
2022-11-20T03:00:49.752Z,8.63
2022-11-20T03:03:16.351Z,8.45
2022-11-20T03:05:42.889Z,8.55
2022-11-20T03:08:09.610Z,8.49
2022-11-20T03:10:36.222Z,8.43
2022-11-20T03:13:02.773Z,8.49
2022-11-20T03:15:29.566Z,8.40
2022-11-20T03:17:56.787Z,8.29
2022-11-20T03:20:23.995Z,8.46
2022-11-20T03:22:50.870Z,8.44
2022-11-20T03:25:17.508Z,8.58
2022-11-20T03:27:44.288Z,8.61
2022-11-20T03:30:11.353Z,8.67
2022-11-20T03:32:38.007Z,8.64
2022-11-20T03:35:04.922Z,8.86
2022-11-20T03:37:31.592Z,8.69
2022-11-20T03:39:58.307Z,8.69
2022-11-20T03:42:43.539Z,8.82
2022-11-20T03:45:10.398Z,8.76
2022-11-20T03:47:36.992Z,8.75
2022-11-20T03:50:04.687Z,8.66
2022-11-20T03:52:31.384Z,8.64
2022-11-20T03:54:57.933Z,8.52
2022-11-20T03:57:24.580Z,8.28
2022-11-20T03:59:51.205Z,8.26
2022-11-20T04:02:17.821Z,8.44
2022-11-20T04:04:44.546Z,8.47
2022-11-20T04:07:11.309Z,8.40
2022-11-20T04:09:37.872Z,8.37
2022-11-20T04:12:04.869Z,8.63
2022-11-20T04:14:31.474Z,8.71
2022-11-20T04:16:58.018Z,8.73
2022-11-20T04:19:24.658Z,8.58
2022-11-20T04:21:51.324Z,8.05
2022-11-20T04:24:17.932Z,8.23
2022-11-20T04:26:44.581Z,8.12
2022-11-20T04:29:12.897Z,8.12
2022-11-20T04:31:39.468Z,8.25
2022-11-20T04:34:08.163Z,8.03
2022-11-20T04:36:35.470Z,8.06
2022-11-20T04:39:05.577Z,8.13
2022-11-20T04:41:35.308Z,8.40
2022-11-20T04:44:04.609Z,8.40
2022-11-20T04:46:37.180Z,8.46
2022-11-20T04:49:04.171Z,8.47
2022-11-20T04:51:30.876Z,8.69
2022-11-20T04:53:57.781Z,8.74
2022-11-20T04:56:24.517Z,8.52
2022-11-20T04:58:51.580Z,8.65
2022-11-20T05:01:23.686Z,8.48
2022-11-20T05:03:50.709Z,8.61
2022-11-20T05:06:20.011Z,8.52
2022-11-20T05:08:47.987Z,8.55
2022-11-20T05:11:16.755Z,8.42
2022-11-20T05:13:43.676Z,8.63
2022-11-20T05:16:22.263Z,8.43
2022-11-20T05:18:50.995Z,8.46
2022-11-20T05:21:18.286Z,8.46
2022-11-20T05:23:45.528Z,8.37
2022-11-20T05:26:18.423Z,8.32
2022-11-20T05:28:45.218Z,8.17
2022-11-20T05:31:22.020Z,8.33
2022-11-20T05:33:52.022Z,8.43
2022-11-20T05:36:19.013Z,8.50
2022-11-20T05:38:49.046Z,8.53
2022-11-20T05:41:19.662Z,8.31
2022-11-20T05:43:47.528Z,8.48
2022-11-20T05:46:17.021Z,8.53
2022-11-20T05:48:45.479Z,8.74
2022-11-20T05:51:17.342Z,8.83
2022-11-20T05:53:48.243Z,8.75
2022-11-20T05:56:18.569Z,9.00
2022-11-20T05:58:45.566Z,9.02
2022-11-20T06:01:24.606Z,9.03
2022-11-20T06:03:52.297Z,8.99
2022-11-20T06:06:19.994Z,9.00
2022-11-20T06:08:47.240Z,8.97
2022-11-20T06:11:14.869Z,8.89
2022-11-20T06:13:42.462Z,9.05
2022-11-20T06:16:10.189Z,9.06
2022-11-20T06:18:36.803Z,8.99
2022-11-20T06:21:12.084Z,9.07
2022-11-20T06:23:38.959Z,8.92
2022-11-20T06:26:07.701Z,8.65
2022-11-20T06:28:34.716Z,8.57
2022-11-20T06:31:01.435Z,8.61
2022-11-20T06:33:28.574Z,8.78
2022-11-20T06:36:01.685Z,8.79
2022-11-20T06:38:30.230Z,8.85
2022-11-20T06:40:57.245Z,8.80
2022-11-20T06:43:25.145Z,9.00
2022-11-20T06:45:55.528Z,9.17
2022-11-20T06:48:23.611Z,9.36
2022-11-20T06:50:50.755Z,9.27
2022-11-20T06:53:17.382Z,9.12
2022-11-20T06:55:45.903Z,9.25
2022-11-20T06:58:14.080Z,9.13
2022-11-20T07:00:40.886Z,8.90
2022-11-20T07:03:09.676Z,8.93
2022-11-20T07:05:37.388Z,8.85
2022-11-20T07:08:04.622Z,8.91
2022-11-20T07:10:31.862Z,8.83
2022-11-20T07:12:58.638Z,8.88
2022-11-20T07:15:26.452Z,8.94
2022-11-20T07:17:53.359Z,9.30
2022-11-20T07:20:20.100Z,9.48
2022-11-20T07:22:46.697Z,9.15
2022-11-20T07:25:13.275Z,9.30
2022-11-20T07:27:39.890Z,9.13
2022-11-20T07:30:07.241Z,9.15
2022-11-20T07:32:33.851Z,8.98
2022-11-20T07:35:00.447Z,9.11
2022-11-20T07:37:27.182Z,9.23
2022-11-20T07:39:53.754Z,9.07
2022-11-20T07:42:20.368Z,9.08
2022-11-20T07:44:46.945Z,9.36
2022-11-20T07:47:13.518Z,9.58
2022-11-20T07:49:40.172Z,9.58
2022-11-20T07:52:06.776Z,9.46
2022-11-20T07:54:33.364Z,9.45
2022-11-20T07:57:00.092Z,9.47
2022-11-20T07:59:26.775Z,9.65
2022-11-20T08:01:53.346Z,9.76
2022-11-20T08:04:20.284Z,9.72
2022-11-20T08:06:46.878Z,9.91
2022-11-20T08:09:13.437Z,10.00
2022-11-20T08:11:58.999Z,9.93
2022-11-20T08:14:25.606Z,10.07
2022-11-20T08:16:52.304Z,10.14
2022-11-20T08:19:20.290Z,10.15
2022-11-20T08:21:47.313Z,10.18
2022-11-20T08:24:14.187Z,10.24
2022-11-20T08:26:41.700Z,9.89
2022-11-20T08:29:08.429Z,10.17
2022-11-20T08:31:35.291Z,10.05
2022-11-20T08:34:06.298Z,10.14
2022-11-20T08:36:36.076Z,9.98
2022-11-20T08:39:03.750Z,9.99
2022-11-20T08:41:31.824Z,10.09
2022-11-20T08:43:59.577Z,9.77
2022-11-20T08:46:28.108Z,9.66
2022-11-20T08:48:54.811Z,9.72
2022-11-20T08:51:21.524Z,9.80
2022-11-20T08:53:49.735Z,9.93
2022-11-20T08:56:16.779Z,9.84
2022-11-20T08:59:16.000Z,9.71
2022-11-20T09:01:30.561Z,9.84
2022-11-20T09:03:58.161Z,9.77
2022-11-20T09:06:24.811Z,10.02
2022-11-20T09:08:54.843Z,9.92
2022-11-20T09:11:22.106Z,10.02
2022-11-20T09:13:48.735Z,10.09
2022-11-20T09:16:15.709Z,10.19
2022-11-20T09:18:42.326Z,10.17
2022-11-20T09:21:14.791Z,10.45
2022-11-20T09:23:41.473Z,10.57
2022-11-20T09:26:13.461Z,10.37
2022-11-20T09:28:40.700Z,10.21
2022-11-20T09:31:22.645Z,10.30
2022-11-20T09:33:49.340Z,10.41
2022-11-20T09:36:16.981Z,10.13
2022-11-20T09:38:43.631Z,9.99
2022-11-20T09:41:55.074Z,9.97
2022-11-20T09:44:33.927Z,9.87
2022-11-20T09:47:08.410Z,9.85
2022-11-20T09:49:53.157Z,10.11
2022-11-20T09:52:28.994Z,10.10
2022-11-20T09:54:56.355Z,10.19
2022-11-20T09:57:31.327Z,10.38
2022-11-20T10:00:02.047Z,10.42
2022-11-20T10:02:53.227Z,10.69
2022-11-20T10:05:28.967Z,10.81
2022-11-20T10:08:18.859Z,11.12
2022-11-20T10:11:05.711Z,11.01
2022-11-20T10:13:56.000Z,11.13
2022-11-20T10:16:34.496Z,11.04
2022-11-20T10:19:23.615Z,10.86
2022-11-20T10:22:10.301Z,10.90
2022-11-20T10:24:45.058Z,11.02
2022-11-20T10:27:26.718Z,10.91
2022-11-20T10:30:04.835Z,10.90
2022-11-20T10:32:39.215Z,10.76
2022-11-20T10:35:14.844Z,11.07
2022-11-20T10:37:46.078Z,11.07
2022-11-20T10:41:15.864Z,11.23
2022-11-20T10:43:43.061Z,11.43
2022-11-20T10:46:19.649Z,11.37
2022-11-20T10:48:47.576Z,11.41
2022-11-20T10:51:38.326Z,11.27
2022-11-20T10:54:25.376Z,11.43
2022-11-20T10:56:54.245Z,11.58
2022-11-20T10:59:30.085Z,11.57
2022-11-20T11:01:57.364Z,11.61
2022-11-20T11:04:38.064Z,12.01
2022-11-20T11:07:18.996Z,11.87
2022-11-20T11:09:56.344Z,12.19
2022-11-20T11:12:24.539Z,12.02
2022-11-20T11:14:53.690Z,12.07
2022-11-20T11:17:28.466Z,11.96
2022-11-20T11:20:18.534Z,11.91
2022-11-20T11:22:57.528Z,11.96
2022-11-20T11:25:28.521Z,12.09
2022-11-20T11:27:57.196Z,11.99
2022-11-20T11:30:25.587Z,12.18
2022-11-20T11:33:03.033Z,12.22
2022-11-20T11:35:30.129Z,12.03
2022-11-20T11:38:08.481Z,12.26
2022-11-20T11:40:39.368Z,12.35
2022-11-20T11:43:28.369Z,12.26
2022-11-20T11:45:56.548Z,12.25
2022-11-20T11:48:23.283Z,12.33
2022-11-20T11:50:52.901Z,12.52
2022-11-20T11:53:22.815Z,12.39
2022-11-20T11:56:09.445Z,12.34
2022-11-20T11:58:51.429Z,12.51
2022-11-20T12:01:35.888Z,12.33
2022-11-20T12:04:43.108Z,12.53
2022-11-20T12:10:16.539Z,12.59
2022-11-20T12:12:47.813Z,12.49
2022-11-20T12:15:24.575Z,12.65
2022-11-20T12:17:51.157Z,12.66
2022-11-20T12:20:18.146Z,12.71
2022-11-20T12:23:23.267Z,12.83
2022-11-20T12:25:57.143Z,12.58
2022-11-20T12:28:32.785Z,12.37
2022-11-20T12:31:14.464Z,12.18
2022-11-20T12:34:08.944Z,12.48
2022-11-20T12:36:59.661Z,12.43
2022-11-20T12:39:43.750Z,12.60
2022-11-20T12:42:43.304Z,12.52
2022-11-20T12:45:28.035Z,13.11
2022-11-20T12:48:19.604Z,12.82
2022-11-20T12:51:13.840Z,12.71
2022-11-20T12:54:08.137Z,12.76
2022-11-20T12:56:53.730Z,12.67
2022-11-20T12:59:29.685Z,12.85
2022-11-20T13:02:31.110Z,12.70
2022-11-20T13:05:18.482Z,12.59
2022-11-20T13:07:46.305Z,12.77
2022-11-20T13:10:24.852Z,12.69
2022-11-20T13:13:14.010Z,12.70
2022-11-20T13:16:01.880Z,12.72
2022-11-20T13:18:40.399Z,12.87
2022-11-20T13:21:21.386Z,12.82
2022-11-20T13:23:48.782Z,12.89
2022-11-20T13:26:21.569Z,13.11
2022-11-20T13:29:00.508Z,13.16
2022-11-20T13:31:39.536Z,13.19
2022-11-20T13:34:08.295Z,13.25
2022-11-20T13:36:37.493Z,12.95
2022-11-20T13:39:04.241Z,12.96
2022-11-20T13:41:39.083Z,12.90
2022-11-20T13:44:14.654Z,12.98
2022-11-20T13:46:46.866Z,12.88
2022-11-20T13:49:28.113Z,12.95
2022-11-20T13:52:06.902Z,12.75
2022-11-20T13:54:42.390Z,12.81
2022-11-20T13:57:28.304Z,12.84
2022-11-20T13:59:59.403Z,12.86
2022-11-20T14:02:31.143Z,12.61
2022-11-20T14:05:00.970Z,12.75
2022-11-20T14:07:41.824Z,12.60
2022-11-20T14:10:21.481Z,12.87
2022-11-20T14:12:48.884Z,12.82
2022-11-20T14:15:32.882Z,12.61
2022-11-20T14:18:00.690Z,12.54
2022-11-20T14:20:29.940Z,12.51
2022-11-20T14:22:56.888Z,12.56
2022-11-20T14:25:28.480Z,12.58
2022-11-20T14:27:58.269Z,12.69
2022-11-20T14:30:27.780Z,12.49
2022-11-20T14:32:59.325Z,12.70
2022-11-20T14:35:31.694Z,12.50
2022-11-20T14:37:58.664Z,12.60
2022-11-20T14:40:36.764Z,12.53
2022-11-20T14:43:26.438Z,12.69
2022-11-20T14:45:57.570Z,12.82
2022-11-20T14:48:30.785Z,12.69
2022-11-20T14:50:58.070Z,12.61
2022-11-20T14:53:26.103Z,13.00
2022-11-20T14:56:00.539Z,12.93
2022-11-20T14:58:35.075Z,12.84
2022-11-20T15:01:07.867Z,12.83
2022-11-20T15:03:36.802Z,12.91
2022-11-20T15:06:03.838Z,12.95
2022-11-20T15:08:30.495Z,12.82
2022-11-20T15:10:58.007Z,12.79
2022-11-20T15:13:37.521Z,12.74
2022-11-20T15:16:11.116Z,12.70
2022-11-20T15:18:40.585Z,12.65
2022-11-20T15:21:21.886Z,12.60
2022-11-20T15:23:49.062Z,12.54
2022-11-20T15:26:22.784Z,12.56
2022-11-20T15:28:51.215Z,12.59
2022-11-20T15:31:21.677Z,12.38
2022-11-20T15:33:48.965Z,12.43
2022-11-20T15:36:15.591Z,12.31
2022-11-20T15:38:42.338Z,12.40
2022-11-20T15:41:10.254Z,12.41
2022-11-20T15:43:36.966Z,12.37
2022-11-20T15:46:05.399Z,12.49
2022-11-20T15:48:47.367Z,12.46
2022-11-20T15:51:35.039Z,12.47
2022-11-20T15:54:03.283Z,12.49
2022-11-20T15:56:30.323Z,12.46
2022-11-20T15:58:56.906Z,12.51
2022-11-20T16:01:24.143Z,12.43
2022-11-20T16:03:50.763Z,12.46
2022-11-20T16:06:17.372Z,12.52
2022-11-20T16:08:44.448Z,12.50
2022-11-20T16:11:16.357Z,12.42
2022-11-20T16:14:01.676Z,12.32
2022-11-20T16:16:34.395Z,12.34
2022-11-20T16:19:01.314Z,12.23
2022-11-20T16:21:32.375Z,12.25
2022-11-20T16:24:11.635Z,11.97
2022-11-20T16:26:38.415Z,12.16
2022-11-20T16:29:06.615Z,12.14
2022-11-20T16:31:33.612Z,12.16
2022-11-20T16:34:05.876Z,11.99
2022-11-20T16:36:36.834Z,11.97
2022-11-20T16:39:04.777Z,12.00
2022-11-20T16:41:33.935Z,12.06
2022-11-20T16:44:02.780Z,11.93
2022-11-20T16:46:32.450Z,11.73
2022-11-20T16:49:00.458Z,11.80
2022-11-20T16:51:29.371Z,11.85
2022-11-20T16:53:56.768Z,11.87
2022-11-20T16:56:26.825Z,11.97
2022-11-20T16:58:56.277Z,11.91
2022-11-20T17:01:24.896Z,11.78
2022-11-20T17:03:59.726Z,11.85
2022-11-20T17:06:29.110Z,11.64
2022-11-20T17:08:56.936Z,11.62
2022-11-20T17:11:24.821Z,11.81
2022-11-20T17:13:52.057Z,11.85
2022-11-20T17:16:20.667Z,11.79
2022-11-20T17:18:49.984Z,11.73
2022-11-20T17:21:18.411Z,11.61
2022-11-20T17:23:46.506Z,11.79
2022-11-20T17:26:22.780Z,11.70
2022-11-20T17:28:57.879Z,11.64
2022-11-20T17:31:25.158Z,11.79
2022-11-20T17:33:52.201Z,11.48
2022-11-20T17:36:19.792Z,11.60
2022-11-20T17:38:46.861Z,11.86
2022-11-20T17:41:16.091Z,11.79
2022-11-20T17:43:43.749Z,11.71
2022-11-20T17:46:21.897Z,11.75
2022-11-20T17:48:49.375Z,11.91
2022-11-20T17:51:21.373Z,11.93
2022-11-20T17:53:51.235Z,11.65
2022-11-20T17:56:36.941Z,11.83
2022-11-20T17:59:09.083Z,11.72
2022-11-20T18:49:57.711Z,11.62
2022-11-20T18:52:35.810Z,11.81
2022-11-20T18:55:05.533Z,11.66
2022-11-20T18:57:32.772Z,11.50
2022-11-20T19:00:03.456Z,11.69
2022-11-20T19:02:34.473Z,11.60
2022-11-20T19:05:04.984Z,11.42
2022-11-20T19:07:31.689Z,11.53
2022-11-20T19:10:03.439Z,11.42
2022-11-20T19:12:30.661Z,11.32
2022-11-20T19:14:57.245Z,11.30
2022-11-20T19:17:24.049Z,11.29
2022-11-20T19:19:51.168Z,11.53
2022-11-20T19:22:17.760Z,11.56
2022-11-20T19:24:44.480Z,11.51
2022-11-20T19:27:11.101Z,11.55
2022-11-20T19:29:37.669Z,11.40
2022-11-20T19:32:04.620Z,11.27
2022-11-20T19:34:31.672Z,11.26
2022-11-20T19:36:58.881Z,11.38
2022-11-20T19:39:25.928Z,11.45
2022-11-20T19:41:52.680Z,11.38
2022-11-20T19:44:19.462Z,11.35
2022-11-20T19:46:46.152Z,11.23
2022-11-20T19:49:14.396Z,11.26
2022-11-20T19:51:48.866Z,11.48
2022-11-20T19:54:16.695Z,11.50
2022-11-20T19:56:43.659Z,11.47
2022-11-20T19:59:10.677Z,11.52
2022-11-20T20:01:37.345Z,11.28
2022-11-20T20:04:05.583Z,11.30
2022-11-20T20:06:34.446Z,11.27
2022-11-20T20:09:12.808Z,11.42
2022-11-20T20:11:40.391Z,11.38
2022-11-20T20:14:10.183Z,11.35
2022-11-20T20:16:37.326Z,11.35
2022-11-20T20:19:05.770Z,11.21
2022-11-20T20:21:34.385Z,11.21
2022-11-20T20:24:01.372Z,11.20
2022-11-20T20:26:30.370Z,11.00
2022-11-20T20:28:57.123Z,11.09
2022-11-20T20:31:25.967Z,11.31
2022-11-20T20:33:53.090Z,11.32
2022-11-20T20:36:21.261Z,11.27
2022-11-20T20:38:48.410Z,11.26
2022-11-20T20:41:19.772Z,11.20
2022-11-20T20:44:04.577Z,11.10
2022-11-20T20:46:31.370Z,11.24
2022-11-20T20:48:58.032Z,11.15
2022-11-20T20:51:24.714Z,11.03
2022-11-20T20:53:51.556Z,11.10
2022-11-20T20:56:19.041Z,11.20
2022-11-20T20:58:45.834Z,11.27
2022-11-20T21:01:14.803Z,11.13
2022-11-20T21:03:41.666Z,11.35
2022-11-20T21:06:09.982Z,11.37
2022-11-20T21:08:40.300Z,11.40
2022-11-20T21:11:13.334Z,11.85
2022-11-20T21:13:41.338Z,11.65
2022-11-20T21:16:08.100Z,11.50
2022-11-20T21:18:35.026Z,11.25
2022-11-20T21:21:24.332Z,11.21
2022-11-20T21:23:52.077Z,11.35
2022-11-20T21:26:19.300Z,11.33
2022-11-20T21:28:46.258Z,11.42
2022-11-20T21:31:15.705Z,11.49
2022-11-20T21:33:44.545Z,11.41
2022-11-20T21:36:17.680Z,11.31
2022-11-20T21:38:45.144Z,11.24
2022-11-20T21:41:13.474Z,11.14
2022-11-20T21:43:40.396Z,11.19
2022-11-20T21:46:15.608Z,11.04
2022-11-20T21:48:44.243Z,10.91
2022-11-20T21:51:16.827Z,10.78
2022-11-20T21:53:44.576Z,10.83
2022-11-20T21:56:16.505Z,10.73
2022-11-20T21:58:46.802Z,10.73
2022-11-20T22:01:16.244Z,10.86
2022-11-20T22:03:43.473Z,11.12
2022-11-20T22:06:10.437Z,11.03
2022-11-20T22:08:38.256Z,10.84
2022-11-20T22:11:07.223Z,10.92
2022-11-20T22:13:52.540Z,11.00
2022-11-20T22:16:19.171Z,10.84
2022-11-20T22:18:47.773Z,10.75
2022-11-20T22:21:16.273Z,10.88
2022-11-20T22:23:43.066Z,10.84
2022-11-20T22:26:17.828Z,10.79
2022-11-20T22:28:48.146Z,10.84
2022-11-20T22:31:15.501Z,10.82
2022-11-20T22:33:42.234Z,10.63
2022-11-20T22:36:14.117Z,10.66
2022-11-20T22:38:41.033Z,10.97
2022-11-20T22:41:12.810Z,10.94
2022-11-20T22:43:40.409Z,10.71
2022-11-20T22:46:09.189Z,10.68
2022-11-20T22:48:37.592Z,10.56
2022-11-20T22:51:09.583Z,10.38
2022-11-20T22:53:36.561Z,10.35
2022-11-20T22:56:04.484Z,10.36
2022-11-20T22:58:31.568Z,10.33
2022-11-20T23:01:13.410Z,10.41
2022-11-20T23:03:41.882Z,10.53
2022-11-20T23:06:09.650Z,10.64
2022-11-20T23:08:37.840Z,10.74
2022-11-20T23:11:09.996Z,10.57
2022-11-20T23:13:36.801Z,10.65
2022-11-20T23:16:06.802Z,10.65
2022-11-20T23:18:34.401Z,10.43
2022-11-20T23:21:05.755Z,10.52
2022-11-20T23:23:32.796Z,10.60
2022-11-20T23:26:08.046Z,10.53
2022-11-20T23:28:35.553Z,10.44
2022-11-20T23:31:03.653Z,10.29
2022-11-20T23:33:30.636Z,10.53
2022-11-20T23:35:57.350Z,10.64
2022-11-20T23:38:23.941Z,10.64
2022-11-20T23:40:51.562Z,10.45
2022-11-20T23:43:19.958Z,10.42
2022-11-20T23:45:48.505Z,10.40
2022-11-20T23:48:15.740Z,10.39
2022-11-20T23:50:43.776Z,10.52
2022-11-20T23:53:11.355Z,10.48
2022-11-20T23:55:38.338Z,10.36
2022-11-20T23:58:05.444Z,10.29
